sensor_id;sensor_type;location;lat;lon;timestamp;pressure;altitude;pressure_sealevel;temperature;humidity
21109;BME280;10712;52.944;9.098;2023-02-14T00:02:16;103597.84;;;10.78;55.11
21109;BME280;10712;52.944;9.098;2023-02-14T00:04:42;103597.91;;;10.72;55.28
21109;BME280;10712;52.944;9.098;2023-02-14T00:07:10;103590.88;;;10.68;55.18
21109;BME280;10712;52.944;9.098;2023-02-14T00:09:36;103596.19;;;10.68;55.32
21109;BME280;10712;52.944;9.098;2023-02-14T00:12:03;103597.97;;;10.69;55.11
21109;BME280;10712;52.944;9.098;2023-02-14T00:14:29;103594.41;;;10.69;55.12
21109;BME280;10712;52.944;9.098;2023-02-14T00:17:14;103605.97;;;10.68;55.20
21109;BME280;10712;52.944;9.098;2023-02-14T00:19:39;103596.19;;;10.68;55.19
21109;BME280;10712;52.944;9.098;2023-02-14T00:22:05;103598.88;;;10.68;55.14
21109;BME280;10712;52.944;9.098;2023-02-14T00:24:31;103605.09;;;10.67;55.08
21109;BME280;10712;52.944;9.098;2023-02-14T00:26:57;103605.09;;;10.67;55.05
21109;BME280;10712;52.944;9.098;2023-02-14T00:29:28;103601.53;;;10.68;55.27
21109;BME280;10712;52.944;9.098;2023-02-14T00:31:55;103604.19;;;10.70;55.25
21109;BME280;10712;52.944;9.098;2023-02-14T00:34:23;103606.84;;;10.71;55.36
21109;BME280;10712;52.944;9.098;2023-02-14T00:36:49;103605.00;;;10.73;55.06
21109;BME280;10712;52.944;9.098;2023-02-14T00:39:16;103600.56;;;10.75;55.21
21109;BME280;10712;52.944;9.098;2023-02-14T00:41:42;103593.38;;;10.79;55.31
21109;BME280;10712;52.944;9.098;2023-02-14T00:44:11;103588.00;;;10.82;55.37
21109;BME280;10712;52.944;9.098;2023-02-14T00:46:38;103596.00;;;10.83;55.57
21109;BME280;10712;52.944;9.098;2023-02-14T00:49:04;103597.75;;;10.84;55.25
21109;BME280;10712;52.944;9.098;2023-02-14T00:51:31;103597.72;;;10.87;55.47
21109;BME280;10712;52.944;9.098;2023-02-14T00:53:56;103595.00;;;10.92;55.65
21109;BME280;10712;52.944;9.098;2023-02-14T00:56:22;103591.44;;;10.91;55.66
21109;BME280;10712;52.944;9.098;2023-02-14T00:58:48;103590.56;;;10.89;55.71
21109;BME280;10712;52.944;9.098;2023-02-14T01:01:17;103600.34;;;10.90;55.79
21109;BME280;10712;52.944;9.098;2023-02-14T01:03:43;103597.69;;;10.90;55.72
21109;BME280;10712;52.944;9.098;2023-02-14T01:06:09;103598.56;;;10.89;55.76
21109;BME280;10712;52.944;9.098;2023-02-14T01:08:35;103588.78;;;10.91;55.73
21109;BME280;10712;52.944;9.098;2023-02-14T01:11:13;103595.03;;;10.89;55.82
21109;BME280;10712;52.944;9.098;2023-02-14T01:13:41;103589.69;;;10.89;55.83
21109;BME280;10712;52.944;9.098;2023-02-14T01:16:11;103593.22;;;10.91;55.93
21109;BME280;10712;52.944;9.098;2023-02-14T01:18:38;103588.78;;;10.90;55.77
21109;BME280;10712;52.944;9.098;2023-02-14T01:21:19;103587.00;;;10.90;55.84
21109;BME280;10712;52.944;9.098;2023-02-14T01:23:47;103588.78;;;10.91;56.04
21109;BME280;10712;52.944;9.098;2023-02-14T01:26:15;103594.09;;;10.91;56.01
21109;BME280;10712;52.944;9.098;2023-02-14T01:28:43;103586.94;;;10.93;56.09
21109;BME280;10712;52.944;9.098;2023-02-14T01:31:13;103588.72;;;10.94;56.09
21109;BME280;10712;52.944;9.098;2023-02-14T01:33:41;103589.66;;;10.92;55.99
21109;BME280;10712;52.944;9.098;2023-02-14T01:36:20;103590.53;;;10.92;55.90
21109;BME280;10712;52.944;9.098;2023-02-14T01:38:50;103586.13;;;10.90;56.24
21109;BME280;10712;52.944;9.098;2023-02-14T01:41:17;103587.03;;;10.87;56.01
21109;BME280;10712;52.944;9.098;2023-02-14T01:43:55;103585.28;;;10.86;56.03
21109;BME280;10712;52.944;9.098;2023-02-14T01:46:24;103585.25;;;10.89;56.00
21109;BME280;10712;52.944;9.098;2023-02-14T01:48:55;103585.25;;;10.89;55.96
21109;BME280;10712;52.944;9.098;2023-02-14T01:51:23;103573.66;;;10.90;55.85
21109;BME280;10712;52.944;9.098;2023-02-14T01:53:51;103579.00;;;10.90;55.83
21109;BME280;10712;52.944;9.098;2023-02-14T01:56:25;103578.09;;;10.91;56.15
21109;BME280;10712;52.944;9.098;2023-02-14T01:58:57;103576.34;;;10.90;55.93
21109;BME280;10712;52.944;9.098;2023-02-14T02:01:26;103579.91;;;10.89;55.93
21109;BME280;10712;52.944;9.098;2023-02-14T02:03:56;103570.13;;;10.88;55.80
21109;BME280;10712;52.944;9.098;2023-02-14T02:06:44;103572.88;;;10.85;55.93
21109;BME280;10712;52.944;9.098;2023-02-14T02:09:21;103573.72;;;10.86;55.80
21109;BME280;10712;52.944;9.098;2023-02-14T02:11:49;103572.00;;;10.83;55.94
21109;BME280;10712;52.944;9.098;2023-02-14T02:14:19;103571.13;;;10.83;55.94
21109;BME280;10712;52.944;9.098;2023-02-14T02:17:11;103559.56;;;10.81;55.85
21109;BME280;10712;52.944;9.098;2023-02-14T02:35:11;103553.50;;;10.71;55.61
21109;BME280;10712;52.944;9.098;2023-02-14T02:38:01;103554.41;;;10.72;55.69
21109;BME280;10712;52.944;9.098;2023-02-14T02:46:21;103537.56;;;10.65;55.67
21109;BME280;10712;52.944;9.098;2023-02-14T02:49:25;103543.84;;;10.62;55.59
21109;BME280;10712;52.944;9.098;2023-02-14T02:53:03;103531.44;;;10.60;55.56
21109;BME280;10712;52.944;9.098;2023-02-14T02:58:36;103536.75;;;10.60;55.61
21109;BME280;10712;52.944;9.098;2023-02-14T03:01:29;103535.88;;;10.58;55.84
21109;BME280;10712;52.944;9.098;2023-02-14T03:04:05;103535.88;;;10.58;55.62
21109;BME280;10712;52.944;9.098;2023-02-14T03:06:51;103530.56;;;10.58;55.61
21109;BME280;10712;52.944;9.098;2023-02-14T03:15:27;103525.28;;;10.55;55.74
21109;BME280;10712;52.944;9.098;2023-02-14T03:21:01;103521.81;;;10.50;55.52
21109;BME280;10712;52.944;9.098;2023-02-14T03:23:38;103522.72;;;10.49;55.56
21109;BME280;10712;52.944;9.098;2023-02-14T03:26:20;103525.41;;;10.44;55.61
21109;BME280;10712;52.944;9.098;2023-02-14T03:28:58;103519.25;;;10.41;55.56
21109;BME280;10712;52.944;9.098;2023-02-14T03:31:57;103516.69;;;10.35;55.70
21109;BME280;10712;52.944;9.098;2023-02-14T03:34:37;103514.94;;;10.31;55.50
21109;BME280;10712;52.944;9.098;2023-02-14T03:37:39;103510.59;;;10.23;55.56
21109;BME280;10712;52.944;9.098;2023-02-14T03:40:47;103512.47;;;10.15;55.47
21109;BME280;10712;52.944;9.098;2023-02-14T03:46:12;103512.53;;;10.08;55.50
21109;BME280;10712;52.944;9.098;2023-02-14T03:48:41;103502.84;;;10.02;55.45
21109;BME280;10712;52.944;9.098;2023-02-14T03:51:11;103494.91;;;9.98;55.47
21109;BME280;10712;52.944;9.098;2023-02-14T03:53:45;103502.00;;;9.97;55.61
21109;BME280;10712;52.944;9.098;2023-02-14T03:58:57;103503.78;;;9.97;55.65
21109;BME280;10712;52.944;9.098;2023-02-14T04:01:35;103497.53;;;9.99;55.63
21109;BME280;10712;52.944;9.098;2023-02-14T04:04:06;103496.66;;;9.99;55.63
21109;BME280;10712;52.944;9.098;2023-02-14T04:06:32;103498.50;;;9.95;55.48
21109;BME280;10712;52.944;9.098;2023-02-14T04:08:58;103492.38;;;9.88;55.65
21109;BME280;10712;52.944;9.098;2023-02-14T04:11:24;103499.50;;;9.85;55.56
21109;BME280;10712;52.944;9.098;2023-02-14T04:13:50;103496.88;;;9.80;55.30
21109;BME280;10712;52.944;9.098;2023-02-14T04:16:16;103490.72;;;9.75;55.36
21109;BME280;10712;52.944;9.098;2023-02-14T04:18:41;103485.50;;;9.68;55.25
21109;BME280;10712;52.944;9.098;2023-02-14T04:21:26;103489.94;;;9.66;55.41
21109;BME280;10712;52.944;9.098;2023-02-14T04:23:51;103489.06;;;9.64;55.42
21109;BME280;10712;52.944;9.098;2023-02-14T04:26:17;103486.41;;;9.64;55.45
21109;BME280;10712;52.944;9.098;2023-02-14T04:28:43;103486.41;;;9.62;55.29
21109;BME280;10712;52.944;9.098;2023-02-14T04:31:09;103492.63;;;9.63;55.43
21109;BME280;10712;52.944;9.098;2023-02-14T04:33:36;103478.47;;;9.61;55.29
21109;BME280;10712;52.944;9.098;2023-02-14T04:36:02;103482.03;;;9.60;55.37
21109;BME280;10712;52.944;9.098;2023-02-14T04:38:28;103471.41;;;9.57;55.41
21109;BME280;10712;52.944;9.098;2023-02-14T04:40:53;103473.16;;;9.58;55.30
21109;BME280;10712;52.944;9.098;2023-02-14T04:43:19;103478.50;;;9.55;55.24
21109;BME280;10712;52.944;9.098;2023-02-14T04:45:46;103478.50;;;9.58;55.32
21109;BME280;10712;52.944;9.098;2023-02-14T04:48:12;103471.41;;;9.57;55.26
21109;BME280;10712;52.944;9.098;2023-02-14T04:50:37;103470.50;;;9.58;55.20
21109;BME280;10712;52.944;9.098;2023-02-14T04:53:03;103465.19;;;9.58;55.29
21109;BME280;10712;52.944;9.098;2023-02-14T04:55:29;103461.66;;;9.56;55.04
21109;BME280;10712;52.944;9.098;2023-02-14T04:57:55;103461.63;;;9.57;55.15
21109;BME280;10712;52.944;9.098;2023-02-14T05:00:21;103454.47;;;9.62;55.03
21109;BME280;10712;52.944;9.098;2023-02-14T05:02:47;103448.25;;;9.62;55.05
21109;BME280;10712;52.944;9.098;2023-02-14T05:05:13;103448.25;;;9.63;55.17
21109;BME280;10712;52.944;9.098;2023-02-14T05:07:38;103444.69;;;9.66;54.90
21109;BME280;10712;52.944;9.098;2023-02-14T05:10:05;103450.00;;;9.66;54.72
21109;BME280;10712;52.944;9.098;2023-02-14T05:12:31;103451.78;;;9.65;55.01
21109;BME280;10712;52.944;9.098;2023-02-14T05:14:57;103455.34;;;9.66;54.85
21109;BME280;10712;52.944;9.098;2023-02-14T05:17:23;103445.59;;;9.63;54.98
21109;BME280;10712;52.944;9.098;2023-02-14T05:19:49;103447.38;;;9.64;54.88
21109;BME280;10712;52.944;9.098;2023-02-14T05:22:14;103447.38;;;9.64;54.90
21109;BME280;10712;52.944;9.098;2023-02-14T05:24:40;103448.25;;;9.65;54.97
21109;BME280;10712;52.944;9.098;2023-02-14T05:27:06;103442.94;;;9.65;54.85
21109;BME280;10712;52.944;9.098;2023-02-14T05:29:32;103442.06;;;9.63;54.79
21109;BME280;10712;52.944;9.098;2023-02-14T05:31:58;103441.22;;;9.61;54.85
21109;BME280;10712;52.944;9.098;2023-02-14T05:34:24;103443.81;;;9.62;54.73
21109;BME280;10712;52.944;9.098;2023-02-14T05:36:49;103438.53;;;9.61;54.84
21109;BME280;10712;52.944;9.098;2023-02-14T05:39:15;103435.88;;;9.61;54.66
21109;BME280;10712;52.944;9.098;2023-02-14T05:41:41;103441.22;;;9.58;54.83
21109;BME280;10712;52.944;9.098;2023-02-14T05:44:07;103442.19;;;9.52;54.78
21109;BME280;10712;52.944;9.098;2023-02-14T05:46:32;103437.75;;;9.49;54.76
21109;BME280;10712;52.944;9.098;2023-02-14T05:48:58;103441.31;;;9.48;54.80
21109;BME280;10712;52.944;9.098;2023-02-14T05:51:24;103438.69;;;9.47;54.70
21109;BME280;10712;52.944;9.098;2023-02-14T05:53:50;103443.13;;;9.46;54.78
21109;BME280;10712;52.944;9.098;2023-02-14T05:56:16;103449.34;;;9.45;54.65
21109;BME280;10712;52.944;9.098;2023-02-14T05:58:42;103444.94;;;9.44;54.65
21109;BME280;10712;52.944;9.098;2023-02-14T06:01:08;103448.50;;;9.40;54.76
21109;BME280;10712;52.944;9.098;2023-02-14T06:03:34;103451.19;;;9.37;54.65
21109;BME280;10712;52.944;9.098;2023-02-14T06:06:00;103446.78;;;9.36;54.68
21109;BME280;10712;52.944;9.098;2023-02-14T06:08:26;103445.00;;;9.35;54.81
21109;BME280;10712;52.944;9.098;2023-02-14T06:10:51;103458.38;;;9.31;54.67
21109;BME280;10712;52.944;9.098;2023-02-14T06:13:17;103464.63;;;9.25;54.62
21109;BME280;10712;52.944;9.098;2023-02-14T06:15:43;103459.31;;;9.22;54.82
21109;BME280;10712;52.944;9.098;2023-02-14T06:18:09;103464.66;;;9.22;54.62
21109;BME280;10712;52.944;9.098;2023-02-14T06:20:35;103469.19;;;9.13;54.62
21109;BME280;10712;52.944;9.098;2023-02-14T06:23:02;103468.31;;;9.06;54.63
21109;BME280;10712;52.944;9.098;2023-02-14T06:25:28;103470.13;;;9.04;54.75
21109;BME280;10712;52.944;9.098;2023-02-14T06:27:57;103469.25;;;9.03;54.67
21109;BME280;10712;52.944;9.098;2023-02-14T06:30:24;103466.59;;;9.05;54.71
21109;BME280;10712;52.944;9.098;2023-02-14T06:32:50;103463.00;;;9.07;54.90
21109;BME280;10712;52.944;9.098;2023-02-14T06:35:16;103465.66;;;9.12;54.70
21109;BME280;10712;52.944;9.098;2023-02-14T06:37:42;103462.06;;;9.13;54.76
21109;BME280;10712;52.944;9.098;2023-02-14T06:40:11;103470.03;;;9.16;54.73
21109;BME280;10712;52.944;9.098;2023-02-14T06:42:37;103459.38;;;9.19;54.78
21109;BME280;10712;52.944;9.098;2023-02-14T06:45:04;103455.78;;;9.20;55.13
21109;BME280;10712;52.944;9.098;2023-02-14T06:47:30;103461.97;;;9.24;54.99
21109;BME280;10712;52.944;9.098;2023-02-14T06:49:56;103466.41;;;9.26;55.06
21109;BME280;10712;52.944;9.098;2023-02-14T06:52:25;103457.47;;;9.30;55.01
21109;BME280;10712;52.944;9.098;2023-02-14T06:54:51;103457.47;;;9.33;55.16
21109;BME280;10712;52.944;9.098;2023-02-14T06:57:16;103453.88;;;9.36;55.33
21109;BME280;10712;52.944;9.098;2023-02-14T06:59:42;103453.81;;;9.40;55.26
21109;BME280;10712;52.944;9.098;2023-02-14T07:02:10;103450.25;;;9.44;55.28
21109;BME280;10712;52.944;9.098;2023-02-14T07:04:36;103453.72;;;9.49;55.27
21109;BME280;10712;52.944;9.098;2023-02-14T07:07:02;103455.50;;;9.51;55.30
21109;BME280;10712;52.944;9.098;2023-02-14T07:09:28;103450.19;;;9.51;55.34
21109;BME280;10712;52.944;9.098;2023-02-14T07:11:54;103451.94;;;9.52;55.44
21109;BME280;10712;52.944;9.098;2023-02-14T07:14:20;103455.47;;;9.54;55.40
21109;BME280;10712;52.944;9.098;2023-02-14T07:16:46;103454.56;;;9.55;55.40
21109;BME280;10712;52.944;9.098;2023-02-14T07:19:12;103454.53;;;9.58;55.63
21109;BME280;10712;52.944;9.098;2023-02-14T07:21:37;103454.53;;;9.59;55.61
21109;BME280;10712;52.944;9.098;2023-02-14T07:24:05;103452.69;;;9.61;55.52
21109;BME280;10712;52.944;9.098;2023-02-14T07:26:30;103439.38;;;9.63;55.74
21109;BME280;10712;52.944;9.098;2023-02-14T07:28:56;103443.81;;;9.65;55.60
21109;BME280;10712;52.944;9.098;2023-02-14T07:31:22;103448.25;;;9.65;55.75
21109;BME280;10712;52.944;9.098;2023-02-14T07:33:50;103450.00;;;9.66;55.77
21109;BME280;10712;52.944;9.098;2023-02-14T07:36:15;103458.91;;;9.65;55.83
21109;BME280;10712;52.944;9.098;2023-02-14T07:38:41;103466.00;;;9.66;55.78
21109;BME280;10712;52.944;9.098;2023-02-14T07:41:07;103464.22;;;9.65;55.95
21109;BME280;10712;52.944;9.098;2023-02-14T07:43:33;103464.19;;;9.68;55.83
21109;BME280;10712;52.944;9.098;2023-02-14T07:46:01;103458.88;;;9.68;55.84
21109;BME280;10712;52.944;9.098;2023-02-14T07:48:27;103456.16;;;9.71;55.83
21109;BME280;10712;52.944;9.098;2023-02-14T07:50:53;103458.81;;;9.74;55.84
21109;BME280;10712;52.944;9.098;2023-02-14T07:53:23;103456.06;;;9.78;55.95
21109;BME280;10712;52.944;9.098;2023-02-14T07:55:50;103460.44;;;9.84;56.04
21109;BME280;10712;52.944;9.098;2023-02-14T07:58:17;103458.66;;;9.86;55.89
21109;BME280;10712;52.944;9.098;2023-02-14T08:00:43;103459.53;;;9.88;56.11
21109;BME280;10712;52.944;9.098;2023-02-14T08:03:12;103455.91;;;9.94;55.78
21109;BME280;10712;52.944;9.098;2023-02-14T08:05:38;103454.97;;;9.96;55.95
21109;BME280;10712;52.944;9.098;2023-02-14T08:08:05;103452.25;;;10.01;55.94
21109;BME280;10712;52.944;9.098;2023-02-14T08:10:31;103451.28;;;10.06;56.07
21109;BME280;10712;52.944;9.098;2023-02-14T08:12:56;103445.97;;;10.06;56.08
21109;BME280;10712;52.944;9.098;2023-02-14T08:15:33;103452.13;;;10.10;56.20
21109;BME280;10712;52.944;9.098;2023-02-14T08:18:20;103454.75;;;10.14;56.26
21109;BME280;10712;52.944;9.098;2023-02-14T08:20:48;103465.28;;;10.23;56.22
21109;BME280;10712;52.944;9.098;2023-02-14T08:23:15;103459.03;;;10.27;56.18
21109;BME280;10712;52.944;9.098;2023-02-14T08:25:41;103457.19;;;10.33;56.25
21109;BME280;10712;52.944;9.098;2023-02-14T08:28:07;103455.38;;;10.35;56.32
21109;BME280;10712;52.944;9.098;2023-02-14T08:30:36;103463.31;;;10.38;56.46
21109;BME280;10712;52.944;9.098;2023-02-14T08:33:03;103461.53;;;10.40;56.48
21109;BME280;10712;52.944;9.098;2023-02-14T08:35:30;103459.63;;;10.48;56.53
21109;BME280;10712;52.944;9.098;2023-02-14T08:37:56;103459.53;;;10.54;56.40
21109;BME280;10712;52.944;9.098;2023-02-14T08:40:22;103464.16;;;10.41;56.93
21109;BME280;10712;52.944;9.098;2023-02-14T08:42:48;103465.28;;;10.23;57.32
21109;BME280;10712;52.944;9.098;2023-02-14T08:45:14;103463.56;;;10.22;57.83
21109;BME280;10712;52.944;9.098;2023-02-14T08:47:40;103468.78;;;10.29;57.87
21109;BME280;10712;52.944;9.098;2023-02-14T08:50:10;103471.44;;;10.30;58.00
21109;BME280;10712;52.944;9.098;2023-02-14T08:52:39;103465.84;;;10.50;57.51
21109;BME280;10712;52.944;9.098;2023-02-14T08:55:06;103450.66;;;10.52;57.46
21109;BME280;10712;52.944;9.098;2023-02-14T08:57:32;103458.47;;;10.65;57.07
21109;BME280;10712;52.944;9.098;2023-02-14T08:59:58;103459.44;;;10.60;57.68
21109;BME280;10712;52.944;9.098;2023-02-14T09:02:24;103465.53;;;10.70;57.18
21109;BME280;10712;52.944;9.098;2023-02-14T09:04:49;103463.84;;;10.62;57.43
21109;BME280;10712;52.944;9.098;2023-02-14T09:07:15;103463.78;;;10.67;57.32
21109;BME280;10712;52.944;9.098;2023-02-14T09:09:41;103465.53;;;10.70;57.50
21109;BME280;10712;52.944;9.098;2023-02-14T09:12:08;103453.91;;;10.72;57.63
21109;BME280;10712;52.944;9.098;2023-02-14T09:14:42;103453.88;;;10.75;57.39
21109;BME280;10712;52.944;9.098;2023-02-14T09:17:12;103452.91;;;10.79;57.62
21109;BME280;10712;52.944;9.098;2023-02-14T09:19:38;103457.34;;;10.80;57.47
21109;BME280;10712;52.944;9.098;2023-02-14T09:22:08;103451.91;;;10.86;57.06
21109;BME280;10712;52.944;9.098;2023-02-14T09:24:36;103460.00;;;10.82;57.26
21109;BME280;10712;52.944;9.098;2023-02-14T09:27:03;103459.31;;;10.69;57.64
21109;BME280;10712;52.944;9.098;2023-02-14T09:29:30;103457.44;;;10.74;57.82
21109;BME280;10712;52.944;9.098;2023-02-14T09:31:59;103453.84;;;10.78;57.69
21109;BME280;10712;52.944;9.098;2023-02-14T09:34:27;103452.78;;;10.88;57.36
21109;BME280;10712;52.944;9.098;2023-02-14T09:37:12;103452.88;;;10.82;57.50
21109;BME280;10712;52.944;9.098;2023-02-14T09:39:57;103450.19;;;10.84;57.50
21109;BME280;10712;52.944;9.098;2023-02-14T09:42:35;103446.66;;;10.83;57.68
21109;BME280;10712;52.944;9.098;2023-02-14T09:45:31;103453.63;;;10.90;57.52
21109;BME280;10712;52.944;9.098;2023-02-14T09:48:21;103443.75;;;10.95;57.80
21109;BME280;10712;52.944;9.098;2023-02-14T09:50:58;103438.19;;;11.11;57.20
21109;BME280;10712;52.944;9.098;2023-02-14T09:53:32;103442.88;;;10.96;57.48
21109;BME280;10712;52.944;9.098;2023-02-14T09:56:34;103441.16;;;10.92;57.83
21109;BME280;10712;52.944;9.098;2023-02-14T10:05:12;103439.03;;;11.13;58.08
21109;BME280;10712;52.944;9.098;2023-02-14T10:10:40;103438.56;;;11.37;57.80
21109;BME280;10712;52.944;9.098;2023-02-14T10:13:51;103437.94;;;11.24;58.10
21109;BME280;10712;52.944;9.098;2023-02-14T10:16:38;103436.13;;;11.26;58.41
21109;BME280;10712;52.944;9.098;2023-02-14T10:19:26;103434.88;;;11.44;58.24
21109;BME280;10712;52.944;9.098;2023-02-14T10:22:22;103431.31;;;11.45;58.47
21109;BME280;10712;52.944;9.098;2023-02-14T10:25:21;103434.72;;;11.53;58.42
21109;BME280;10712;52.944;9.098;2023-02-14T10:27:51;103432.88;;;11.55;58.46
21109;BME280;10712;52.944;9.098;2023-02-14T10:30:21;103427.59;;;11.54;58.49
21109;BME280;10712;52.944;9.098;2023-02-14T10:33:09;103425.69;;;11.60;58.25
21109;BME280;10712;52.944;9.098;2023-02-14T10:35:41;103422.19;;;11.55;58.70
21109;BME280;10712;52.944;9.098;2023-02-14T10:38:43;103417.44;;;11.74;57.95
21109;BME280;10712;52.944;9.098;2023-02-14T10:44:45;103425.75;;;11.56;58.62
21109;BME280;10712;52.944;9.098;2023-02-14T10:47:38;103422.91;;;11.65;58.67
21109;BME280;10712;52.944;9.098;2023-02-14T10:50:18;103423.59;;;11.76;58.45
21109;BME280;10712;52.944;9.098;2023-02-14T10:58:35;103422.25;;;11.97;58.04
21109;BME280;10712;52.944;9.098;2023-02-14T11:01:12;103413.56;;;11.89;58.52
21109;BME280;10712;52.944;9.098;2023-02-14T11:03:41;103409.84;;;11.96;58.62
21109;BME280;10712;52.944;9.098;2023-02-14T11:06:11;103414.34;;;11.94;58.96
21109;BME280;10712;52.944;9.098;2023-02-14T11:08:40;103412.78;;;12.23;58.46
21109;BME280;10712;52.944;9.098;2023-02-14T11:11:23;103413.03;;;12.11;58.54
21109;BME280;10712;52.944;9.098;2023-02-14T11:13:51;103406.94;;;12.05;58.63
21109;BME280;10712;52.944;9.098;2023-02-14T11:21:42;103397.91;;;12.10;59.11
21109;BME280;10712;52.944;9.098;2023-02-14T11:27:14;103393.25;;;12.20;59.04
21109;BME280;10712;52.944;9.098;2023-02-14T11:29:47;103384.19;;;12.27;59.18
21109;BME280;10712;52.944;9.098;2023-02-14T11:32:24;103370.66;;;12.33;59.19
21109;BME280;10712;52.944;9.098;2023-02-14T11:35:05;103382.00;;;12.44;58.79
21109;BME280;10712;52.944;9.098;2023-02-14T11:37:43;103375.66;;;12.48;58.85
21109;BME280;10712;52.944;9.098;2023-02-14T11:40:36;103361.28;;;12.52;59.02
21109;BME280;10712;52.944;9.098;2023-02-14T11:45:45;103361.59;;;12.76;59.05
21109;BME280;10712;52.944;9.098;2023-02-14T11:48:26;103359.47;;;12.88;58.91
21109;BME280;10712;52.944;9.098;2023-02-14T11:50:56;103356.69;;;12.93;58.75
21109;BME280;10712;52.944;9.098;2023-02-14T11:53:29;103342.19;;;13.00;58.92
21109;BME280;10712;52.944;9.098;2023-02-14T11:55:58;103345.66;;;13.05;58.74
21109;BME280;10712;52.944;9.098;2023-02-14T11:58:41;103340.13;;;13.11;59.10
21109;BME280;10712;52.944;9.098;2023-02-14T12:01:34;103348.00;;;13.17;59.23
21109;BME280;10712;52.944;9.098;2023-02-14T12:04:18;103339.16;;;13.46;58.52
21109;BME280;10712;52.944;9.098;2023-02-14T12:06:47;103332.97;;;13.44;58.60
21109;BME280;10712;52.944;9.098;2023-02-14T12:09:26;103338.06;;;13.53;58.38
21109;BME280;10712;52.944;9.098;2023-02-14T12:12:15;103325.50;;;13.55;58.86
21109;BME280;10712;52.944;9.098;2023-02-14T12:14:41;103329.50;;;13.70;58.75
21109;BME280;10712;52.944;9.098;2023-02-14T12:19:50;103321.84;;;13.87;58.50
21109;BME280;10712;52.944;9.098;2023-02-14T12:22:25;103319.06;;;13.90;58.62
21109;BME280;10712;52.944;9.098;2023-02-14T12:25:13;103316.00;;;14.02;58.75
21109;BME280;10712;52.944;9.098;2023-02-14T12:30:23;103310.63;;;14.30;58.53
21109;BME280;10712;52.944;9.098;2023-02-14T12:32:52;103303.91;;;14.45;58.52
21109;BME280;10712;52.944;9.098;2023-02-14T12:41:55;103278.88;;;14.71;58.28
21109;BME280;10712;52.944;9.098;2023-02-14T12:56:48;103261.69;;;15.48;57.99
21109;BME280;10712;52.944;9.098;2023-02-14T13:14:35;103235.47;;;15.98;56.79
21109;BME280;10712;52.944;9.098;2023-02-14T13:17:39;103237.72;;;16.08;56.59
21109;BME280;10712;52.944;9.098;2023-02-14T13:21:10;103239.69;;;16.25;56.49
21109;BME280;10712;52.944;9.098;2023-02-14T13:23:21;103225.03;;;16.32;56.13
21109;BME280;10712;52.944;9.098;2023-02-14T13:25:59;103219.44;;;16.38;56.12
21109;BME280;10712;52.944;9.098;2023-02-14T13:28:27;103209.72;;;16.54;56.06
21109;BME280;10712;52.944;9.098;2023-02-14T13:30:57;103212.97;;;16.63;56.03
21109;BME280;10712;52.944;9.098;2023-02-14T13:33:29;103212.00;;;16.65;55.98
21109;BME280;10712;52.944;9.098;2023-02-14T13:36:00;103209.47;;;16.61;55.84
21109;BME280;10712;52.944;9.098;2023-02-14T13:38:29;103201.47;;;16.79;55.57
21109;BME280;10712;52.944;9.098;2023-02-14T13:40:59;103203.13;;;16.82;55.43
21109;BME280;10712;52.944;9.098;2023-02-14T13:43:57;103198.78;;;16.79;55.32
21109;BME280;10712;52.944;9.098;2023-02-14T13:49:28;103189.72;;;17.01;54.86
21109;BME280;10712;52.944;9.098;2023-02-14T13:52:01;103187.16;;;17.16;54.66
21109;BME280;10712;52.944;9.098;2023-02-14T13:54:54;103187.31;;;17.13;54.53
21109;BME280;10712;52.944;9.098;2023-02-14T13:57:34;103189.78;;;17.37;54.01
21109;BME280;10712;52.944;9.098;2023-02-14T14:00:35;103181.06;;;17.31;53.84
21109;BME280;10712;52.944;9.098;2023-02-14T14:03:02;103180.31;;;17.47;53.52
21109;BME280;10712;52.944;9.098;2023-02-14T14:18:50;103163.53;;;17.59;52.67
21109;BME280;10712;52.944;9.098;2023-02-14T14:21:26;103159.31;;;17.53;52.71
21109;BME280;10712;52.944;9.098;2023-02-14T14:26:42;103161.50;;;17.64;52.68
21109;BME280;10712;52.944;9.098;2023-02-14T14:31:45;103157.25;;;17.77;52.33
21109;BME280;10712;52.944;9.098;2023-02-14T14:34:19;103146.63;;;17.74;52.40
21109;BME280;10712;52.944;9.098;2023-02-14T14:36:46;103155.53;;;17.76;52.46
21109;BME280;10712;52.944;9.098;2023-02-14T14:39:12;103147.19;;;17.81;52.54
21109;BME280;10712;52.944;9.098;2023-02-14T14:41:49;103145.69;;;17.75;52.54
21109;BME280;10712;52.944;9.098;2023-02-14T14:44:16;103143.00;;;17.75;52.69
21109;BME280;10712;52.944;9.098;2023-02-14T14:46:42;103148.53;;;17.72;52.76
21109;BME280;10712;52.944;9.098;2023-02-14T14:49:10;103134.09;;;17.73;52.89
21109;BME280;10712;52.944;9.098;2023-02-14T14:51:36;103140.63;;;17.69;53.15
21109;BME280;10712;52.944;9.098;2023-02-14T14:54:15;103137.53;;;17.77;52.85
21109;BME280;10712;52.944;9.098;2023-02-14T14:56:58;103137.75;;;17.72;52.91
21109;BME280;10712;52.944;9.098;2023-02-14T14:59:34;103129.66;;;17.72;52.94
21109;BME280;10712;52.944;9.098;2023-02-14T15:02:19;103125.38;;;17.68;53.04
21109;BME280;10712;52.944;9.098;2023-02-14T15:04:45;103130.78;;;17.68;53.12
21109;BME280;10712;52.944;9.098;2023-02-14T15:07:31;103124.44;;;17.69;53.13
21109;BME280;10712;52.944;9.098;2023-02-14T15:09:58;103124.19;;;17.74;53.17
21109;BME280;10712;52.944;9.098;2023-02-14T15:12:25;103123.38;;;17.71;53.15
21109;BME280;10712;52.944;9.098;2023-02-14T15:15:14;103121.75;;;17.69;53.16
21109;BME280;10712;52.944;9.098;2023-02-14T15:17:42;103120.00;;;17.68;53.20
21109;BME280;10712;52.944;9.098;2023-02-14T15:20:18;103120.13;;;17.65;52.90
21109;BME280;10712;52.944;9.098;2023-02-14T15:22:47;103118.38;;;17.64;52.93
21109;BME280;10712;52.944;9.098;2023-02-14T15:25:31;103112.38;;;17.57;52.98
21109;BME280;10712;52.944;9.098;2023-02-14T15:27:57;103113.44;;;17.55;52.94